Time;durP1;ratioP1;P1;durP2;ratioP2;P2;SDS_P1;SDS_P2;PMS_P1;PMS_P2;Temp;Humidity;BMP_temperature;BMP_pressure;BME280_temperature;BME280_humidity;BME280_pressure;Samples;Min_cycle;Max_cycle;Signal;HPM_P1;HPM_P2
2022/02/09 00:02:20;;;;;;;;;;;;;;;-0.44;97.72;99026.37;1703280;84;20172;-67
2022/02/09 00:04:43;;;;;;;;;;;;;;;-0.43;97.72;99023.95;1701389;83;20125;-67
2022/02/09 00:07:20;;;;;;;;;;;;;;;-0.40;97.75;99023.45;1685346;84;23511;-67
2022/02/09 00:09:43;;;;;;;;;;;;;;;-0.39;97.71;99019.14;1690563;83;20121;-67
2022/02/09 00:12:15;;;;;;;;;;;;;;;-0.37;97.67;99022.94;1684908;84;20098;-67
2022/02/09 00:23:27;;;;;;;;;;;;;;;-0.31;97.84;99017.86;1676041;85;20099;-69
2022/02/09 00:30:36;;;;;;;;;;;;;;;-0.26;97.93;99017.91;1676907;83;20123;-68
2022/02/09 00:38:46;;;;;;;;;;;;;;;-0.22;98.04;99004.17;1635384;87;20127;-68
2022/02/09 00:43:59;;;;;;;;;;;;;;;-0.19;98.24;98994.75;1677116;83;20469;-68
2022/02/09 01:37:53;;;;;;;;;;;;;;;-0.29;100.00;98953.68;1661814;85;20170;-78
2022/02/09 01:38:21;;;;;;;;;;;;;;;-0.30;100.00;98950.70;1650643;85;20150;-70
2022/02/09 01:56:40;;;;;;;;;;;;;;;-0.18;100.00;98957.27;1676317;85;20457;-68
2022/02/09 01:59:07;;;;;;;;;;;;;;;-0.18;100.00;98958.07;1676340;85;20141;-68
2022/02/09 02:01:34;;;;;;;;;;;;;;;-0.17;100.00;98950.80;1676096;83;20139;-70
2022/02/09 02:04:01;;;;;;;;;;;;;;;-0.15;100.00;98954.05;1676395;85;20087;-68
2022/02/09 02:06:27;;;;;;;;;;;;;;;-0.13;100.00;98948.66;1676250;83;21162;-68
2022/02/09 02:08:54;;;;;;;;;;;;;;;-0.13;100.00;98954.06;1676177;83;20456;-69
2022/02/09 02:11:32;;;;;;;;;;;;;;;-0.10;100.00;98950.03;1676175;85;20098;-68
2022/02/09 02:16:57;;;;;;;;;;;;;;;-0.09;100.00;98955.16;1676315;83;20138;-68
2022/02/09 02:30:40;;;;;;;;;;;;;;;-0.04;100.00;98948.45;1685435;84;20118;-67
2022/02/09 02:33:15;;;;;;;;;;;;;;;-0.03;100.00;98941.98;1686847;83;21124;-68
2022/02/09 02:41:29;;;;;;;;;;;;;;;-0.01;100.00;98945.23;1677960;85;20153;-68
2022/02/09 02:57:18;;;;;;;;;;;;;;;0.08;100.00;98951.45;1650969;87;20144;-69
2022/02/09 03:07:43;;;;;;;;;;;;;;;0.09;100.00;98951.19;1648948;86;21191;-69
2022/02/09 03:10:49;;;;;;;;;;;;;;;0.13;100.00;98959.58;1651403;87;20462;-67
2022/02/09 03:13:01;;;;;;;;;;;;;;;0.14;100.00;98966.60;1639398;85;21185;-68
2022/02/09 03:15:36;;;;;;;;;;;;;;;0.16;100.00;98972.02;1665918;85;20090;-67
2022/02/09 03:21:15;;;;;;;;;;;;;;;0.20;100.00;98979.87;1666875;85;20629;-68
2022/02/09 03:23:40;;;;;;;;;;;;;;;0.21;100.00;98979.33;1673919;85;20086;-68
2022/02/09 03:26:24;;;;;;;;;;;;;;;0.25;100.00;98989.88;1680169;84;21201;-68
2022/02/09 03:31:33;;;;;;;;;;;;;;;0.26;100.00;98989.62;1706906;84;20118;-68
2022/02/09 03:47:34;;;;;;;;;;;;;;;0.40;100.00;98998.59;1684009;84;20205;-68
2022/02/09 03:55:18;;;;;;;;;;;;;;;0.42;100.00;98992.40;1676520;85;20154;-68
2022/02/09 03:57:45;;;;;;;;;;;;;;;0.45;100.00;98995.38;1686735;84;20103;-68
2022/02/09 04:00:17;;;;;;;;;;;;;;;0.46;100.00;98996.20;1676643;85;20102;-68
2022/02/09 04:02:47;;;;;;;;;;;;;;;0.45;100.00;99002.14;1676593;85;20123;-68
2022/02/09 04:05:15;;;;;;;;;;;;;;;0.47;100.00;99001.34;1666485;85;21213;-69
2022/02/09 04:07:41;;;;;;;;;;;;;;;0.47;100.00;98997.28;1688233;84;20074;-69
2022/02/09 04:10:14;;;;;;;;;;;;;;;0.47;100.00;98991.89;1674626;85;20445;-68
2022/02/09 04:12:47;;;;;;;;;;;;;;;0.49;100.00;99003.77;1700525;84;20101;-68
2022/02/09 04:15:25;;;;;;;;;;;;;;;0.49;100.00;98997.02;1696019;84;20147;-68
2022/02/09 04:22:23;;;;;;;;;;;;;;;0.53;100.00;98995.42;1698264;84;20094;-68
2022/02/09 04:36:25;;;;;;;;;;;;;;;0.56;100.00;99013.27;1663716;85;20102;-69
2022/02/09 04:38:59;;;;;;;;;;;;;;;0.57;100.00;99013.54;1660547;85;20141;-68
2022/02/09 04:55:01;;;;;;;;;;;;;;;0.68;100.00;99033.81;1660849;85;20129;-68
2022/02/09 05:00:17;;;;;;;;;;;;;;;0.69;100.00;99036.25;1657883;85;20177;-69
2022/02/09 05:28:45;;;;;;;;;;;;;;;0.87;100.00;99080.38;1717697;80;20076;-70
2022/02/09 05:31:11;;;;;;;;;;;;;;;0.90;100.00;99081.74;1717413;83;20706;-70
2022/02/09 05:33:37;;;;;;;;;;;;;;;0.92;100.00;99084.45;1719387;82;20142;-69
2022/02/09 05:36:05;;;;;;;;;;;;;;;0.95;100.00;99089.88;1717220;83;22006;-72
2022/02/09 05:38:32;;;;;;;;;;;;;;;0.96;100.00;99099.61;1653847;84;20125;-69
2022/02/09 05:40:58;;;;;;;;;;;;;;;0.98;100.00;99097.45;1663556;85;20090;-69
2022/02/09 05:43:26;;;;;;;;;;;;;;;0.99;100.00;99105.84;1661846;85;20140;-71
2022/02/09 05:51:33;;;;;;;;;;;;;;;1.03;100.00;99110.18;1661465;85;20080;-72
2022/02/09 05:54:04;;;;;;;;;;;;;;;1.05;100.00;99118.30;1661293;84;20122;-73
2022/02/09 05:56:45;;;;;;;;;;;;;;;1.06;100.00;99117.22;1669450;85;20150;-68
2022/02/09 06:01:37;;;;;;;;;;;;;;;1.11;100.00;99125.36;1651579;86;20749;-68
2022/02/09 06:04:04;;;;;;;;;;;;;;;1.13;100.00;99119.69;1654490;85;20434;-69
2022/02/09 06:06:31;;;;;;;;;;;;;;;1.14;100.00;99135.64;1661345;85;20077;-69
2022/02/09 06:08:57;;;;;;;;;;;;;;;1.17;100.00;99126.97;1651596;86;20105;-68
2022/02/09 06:21:52;;;;;;;;;;;;;;;1.31;100.00;99142.98;1704142;84;20108;-66
2022/02/09 06:24:18;;;;;;;;;;;;;;;1.33;100.00;99148.13;1704037;84;20472;-66
2022/02/09 06:26:44;;;;;;;;;;;;;;;1.36;100.00;99149.48;1704012;84;21149;-66
2022/02/09 06:29:12;;;;;;;;;;;;;;;1.40;100.00;99155.45;1706382;82;20112;-66
2022/02/09 06:31:39;;;;;;;;;;;;;;;1.44;100.00;99157.09;1684052;84;20114;-66
2022/02/09 06:34:05;;;;;;;;;;;;;;;1.46;100.00;99161.16;1681669;84;20138;-66
2022/02/09 06:36:37;;;;;;;;;;;;;;;1.49;100.00;99161.98;1657450;85;20435;-66
2022/02/09 06:39:05;;;;;;;;;;;;;;;1.57;100.00;99170.13;1671446;85;21189;-66
2022/02/09 06:41:28;;;;;;;;;;;;;;;1.61;100.00;99160.39;1671930;85;20096;-66
2022/02/09 06:43:55;;;;;;;;;;;;;;;1.67;100.00;99175.56;1658623;85;20140;-67
2022/02/09 06:46:21;;;;;;;;;;;;;;;1.75;100.00;99178.27;1678997;85;20682;-69
2022/02/09 06:48:49;;;;;;;;;;;;;;;1.84;100.00;99172.06;1679132;85;20455;-68
2022/02/09 06:51:19;;;;;;;;;;;;;;;1.91;100.00;99178.03;1665472;85;21816;-68
2022/02/09 06:54:02;;;;;;;;;;;;;;;1.94;100.00;99190.22;1657477;85;20124;-67
2022/02/09 06:56:36;;;;;;;;;;;;;;;1.97;100.00;99197.80;1664251;85;20542;-68
2022/02/09 06:58:58;;;;;;;;;;;;;;;1.99;100.00;99207.28;1684087;85;20088;-69
2022/02/09 07:01:15;;;;;;;;;;;;;;;2.02;100.00;99199.71;1661014;85;20458;-71
2022/02/09 07:03:42;;;;;;;;;;;;;;;2.05;100.00;99198.63;1696728;83;21155;-73
2022/02/09 07:06:09;;;;;;;;;;;;;;;2.08;100.00;99201.34;1693186;83;20107;-71
2022/02/09 07:08:36;;;;;;;;;;;;;;;2.07;100.00;99211.36;1688630;84;20098;-71
2022/02/09 07:11:02;;;;;;;;;;;;;;;2.12;100.00;99213.27;1706713;84;20376;-71
2022/02/09 07:13:29;;;;;;;;;;;;;;;2.44;100.00;99211.11;1696085;84;20425;-70
2022/02/09 07:16:03;;;;;;;;;;;;;;;2.69;100.00;99208.94;1710283;84;21133;-68
2022/02/09 07:18:24;;;;;;;;;;;;;;;2.68;100.00;99209.21;1697581;84;20162;-69
2022/02/09 07:28:30;;;;;;;;;;;;;;;2.27;100.00;99224.13;1703486;84;21141;-69
2022/02/09 07:30:57;;;;;;;;;;;;;;;2.19;100.00;99221.41;1687030;83;20122;-74
2022/02/09 07:33:24;;;;;;;;;;;;;;;2.17;100.00;99232.23;1679771;85;20141;-70
2022/02/09 07:35:51;;;;;;;;;;;;;;;2.13;100.00;99229.25;1694296;84;20162;-70
2022/02/09 07:38:19;;;;;;;;;;;;;;;2.12;100.00;99241.16;1682597;85;36923;-69
2022/02/09 07:40:45;;;;;;;;;;;;;;;2.08;100.00;99231.95;1677353;85;21229;-69
2022/02/09 07:43:23;;;;;;;;;;;;;;;2.08;100.00;99246.02;1682977;85;20102;-69
2022/02/09 07:48:26;;;;;;;;;;;;;;;2.09;100.00;99251.17;1689232;84;20130;-67
2022/02/09 07:51:27;;;;;;;;;;;;;;;2.10;100.00;99258.75;1680542;85;20994;-73
2022/02/09 07:53:49;;;;;;;;;;;;;;;2.12;100.00;99253.34;1689756;84;21177;-68
2022/02/09 07:56:13;;;;;;;;;;;;;;;2.14;100.00;99242.25;1680300;84;20488;-69
2022/02/09 07:58:39;;;;;;;;;;;;;;;2.15;100.00;99254.70;1681727;85;20106;-71
2022/02/09 08:01:05;;;;;;;;;;;;;;;2.16;100.00;99250.92;1683257;85;20122;-68
2022/02/09 08:03:31;;;;;;;;;;;;;;;2.21;100.00;99256.34;1683136;84;20094;-71
2022/02/09 08:05:58;;;;;;;;;;;;;;;2.23;100.00;99260.95;1682471;85;22333;-68
2022/02/09 08:08:29;;;;;;;;;;;;;;;2.25;100.00;99273.69;1689109;85;20118;-71
2022/02/09 08:10:57;;;;;;;;;;;;;;;2.28;100.00;99269.09;1673911;84;20124;-69
2022/02/09 08:24:14;;;;;;;;;;;;;;;2.60;100.00;99281.03;1641171;87;20423;-67
2022/02/09 08:26:49;;;;;;;;;;;;;;;2.65;100.00;99278.33;1648391;86;20096;-69
2022/02/09 08:32:25;;;;;;;;;;;;;;;2.72;100.00;99291.61;1645677;85;20556;-67
2022/02/09 08:34:15;;;;;;;;;;;;;;;2.71;100.00;99272.36;1646148;87;20120;-74
2022/02/09 08:36:43;;;;;;;;;;;;;;;2.73;100.00;99295.95;1653548;86;20139;-76
2022/02/09 08:39:09;;;;;;;;;;;;;;;2.77;100.00;99290.26;1658332;86;20378;-69
2022/02/09 08:41:35;;;;;;;;;;;;;;;2.78;100.00;99301.38;1648427;86;20080;-70
2022/02/09 08:44:02;;;;;;;;;;;;;;;2.80;100.00;99301.38;1650411;86;21119;-72
2022/02/09 08:46:28;;;;;;;;;;;;;;;2.79;99.21;99305.17;1647856;86;20359;-75
2022/02/09 08:48:55;;;;;;;;;;;;;;;2.80;99.58;99312.76;1658954;86;20092;-72
2022/02/09 08:51:22;;;;;;;;;;;;;;;2.79;99.47;99320.08;1658165;86;20390;-69
2022/02/09 08:53:49;;;;;;;;;;;;;;;2.78;99.07;99325.23;1658267;86;20157;-69
2022/02/09 08:56:16;;;;;;;;;;;;;;;2.76;98.73;99330.65;1657814;86;21161;-71
2022/02/09 08:58:44;;;;;;;;;;;;;;;2.74;98.49;99316.55;1647918;86;20129;-77
2022/02/09 09:01:22;;;;;;;;;;;;;;;2.76;98.96;99317.09;1649129;86;20394;-71
2022/02/09 09:03:45;;;;;;;;;;;;;;;2.81;99.45;99327.40;1673960;85;20098;-71
2022/02/09 09:06:15;;;;;;;;;;;;;;;2.93;99.12;99323.84;1672333;85;20162;-77
2022/02/09 10:02:58;;;;;;;;;;;;;;;3.74;88.19;99346.53;1655380;85;21164;-80
2022/02/09 10:33:17;;;;;;;;;;;;;;;4.10;83.45;99342.58;1668824;85;20114;-74
2022/02/09 10:35:59;;;;;;;;;;;;;;;4.39;83.74;99341.36;1652139;87;20152;-77
2022/02/09 10:38:29;;;;;;;;;;;;;;;4.59;81.83;99348.59;1649234;86;21199;-73
2022/02/09 10:40:55;;;;;;;;;;;;;;;4.73;81.50;99351.47;1651726;86;20423;-76
2022/02/09 10:43:25;;;;;;;;;;;;;;;4.81;80.99;99348.16;1652268;87;21185;-74
2022/02/09 10:45:52;;;;;;;;;;;;;;;4.92;80.42;99355.96;1652236;86;20112;-74
2022/02/09 10:48:36;;;;;;;;;;;;;;;4.99;79.92;99352.92;1652274;87;20145;-73
2022/02/09 10:51:28;;;;;;;;;;;;;;;5.00;79.20;99355.09;1676220;85;20462;-75
2022/02/09 10:54:14;;;;;;;;;;;;;;;4.91;78.50;99354.88;1656956;84;20435;-74
2022/02/09 10:56:42;;;;;;;;;;;;;;;4.91;79.46;99357.05;1660180;85;21601;-72
2022/02/09 10:59:10;;;;;;;;;;;;;;;5.03;78.69;99365.41;1679659;85;20717;-69
2022/02/09 11:01:37;;;;;;;;;;;;;;;5.15;77.17;99363.95;1663444;85;20088;-78
2022/02/09 11:04:04;;;;;;;;;;;;;;;5.46;77.32;99359.58;1665133;85;20402;-75
2022/02/09 11:06:39;;;;;;;;;;;;;;;5.89;75.27;99367.33;1679556;85;20126;-74
2022/02/09 11:09:08;;;;;;;;;;;;;;;6.22;73.39;99369.68;1679704;85;21197;-74
2022/02/09 11:11:39;;;;;;;;;;;;;;;6.27;72.21;99373.70;1679534;85;20135;-73
2022/02/09 11:14:15;;;;;;;;;;;;;;;6.25;71.79;99376.72;1679481;85;20086;-74
2022/02/09 11:16:38;;;;;;;;;;;;;;;6.23;71.23;99373.48;1678114;85;20138;-76
2022/02/09 11:19:07;;;;;;;;;;;;;;;6.10;71.59;99385.63;1679533;85;20122;-73
2022/02/09 11:21:37;;;;;;;;;;;;;;;5.78;71.30;99378.84;1692430;84;21107;-74
2022/02/09 11:24:20;;;;;;;;;;;;;;;5.58;73.03;99378.53;1678302;85;20121;-86
2022/02/09 11:32:34;;;;;;;;;;;;;;;5.57;72.04;99386.98;1697065;84;20417;-71
2022/02/09 11:40:40;;;;;;;;;;;;;;;6.16;71.87;99395.38;1695563;84;20125;-76
2022/02/09 11:51:47;;;;;;;;;;;;;;;6.34;68.11;99390.52;1686911;84;20128;-77
2022/02/09 12:11:26;;;;;;;;;;;;;;;7.11;63.30;99401.16;1683352;84;20090;-73
2022/02/09 12:13:53;;;;;;;;;;;;;;;7.22;63.53;99404.80;1692876;84;20106;-72
2022/02/09 12:16:37;;;;;;;;;;;;;;;7.46;62.76;99400.59;1675825;85;21175;-73
2022/02/09 12:19:03;;;;;;;;;;;;;;;7.79;61.56;99400.55;1680346;84;20428;-71
2022/02/09 12:22:00;;;;;;;;;;;;;;;7.75;60.44;99403.62;1687433;84;20443;-70
2022/02/09 12:24:27;;;;;;;;;;;;;;;7.54;60.93;99410.00;1703696;84;20137;-73
2022/02/09 12:26:58;;;;;;;;;;;;;;;7.23;61.16;99405.05;1695806;83;20097;-79
2022/02/09 12:29:35;;;;;;;;;;;;;;;6.91;61.24;99415.94;1685025;83;21076;-76
2022/02/09 12:32:18;;;;;;;;;;;;;;;6.55;62.49;99422.41;1683396;84;20126;-75
2022/02/09 12:34:59;;;;;;;;;;;;;;;6.34;63.83;99421.87;1695740;84;20199;-74
2022/02/09 12:37:31;;;;;;;;;;;;;;;6.19;64.05;99428.86;1671449;84;20097;-73
2022/02/09 12:40:06;;;;;;;;;;;;;;;6.07;64.55;99430.63;1680742;84;20109;-72
2022/02/09 12:42:37;;;;;;;;;;;;;;;5.90;64.69;99433.79;1707247;84;20692;-71
2022/02/09 12:45:23;;;;;;;;;;;;;;;5.95;65.38;99438.38;1683393;84;20472;-71
2022/02/09 12:47:50;;;;;;;;;;;;;;;6.26;65.34;99446.50;1685911;84;20099;-72
2022/02/09 12:50:23;;;;;;;;;;;;;;;6.63;63.26;99445.77;1676951;85;20098;-70
2022/02/09 12:52:56;;;;;;;;;;;;;;;6.73;63.03;99448.91;1680605;84;20134;-69
2022/02/09 12:55:22;;;;;;;;;;;;;;;6.72;63.37;99460.13;1684982;84;21328;-71
2022/02/09 12:57:53;;;;;;;;;;;;;;;6.64;64.62;99449.30;1675521;84;20441;-71
2022/02/09 13:00:40;;;;;;;;;;;;;;;6.54;63.80;99457.61;1673857;85;20094;-87
2022/02/09 13:03:02;;;;;;;;;;;;;;;6.34;63.27;99474.23;1675168;85;20118;-89
2022/02/09 13:05:31;;;;;;;;;;;;;;;6.07;63.42;99471.50;1685617;84;20090;-76
2022/02/09 13:08:03;;;;;;;;;;;;;;;5.84;64.89;99476.32;1710321;83;20086;-76
2022/02/09 13:10:37;;;;;;;;;;;;;;;5.75;65.20;99466.62;1692951;83;20102;-74
2022/02/09 13:13:18;;;;;;;;;;;;;;;5.77;64.77;99456.25;1674185;85;20098;-83
2022/02/09 13:15:55;;;;;;;;;;;;;;;5.67;64.92;99471.31;1685503;84;20283;-88
2022/02/09 13:22:24;;;;;;;;;;;;;;;5.92;64.43;99477.91;1693273;84;21185;-87
2022/02/09 14:17:54;;;;;;;;;;;;;;;5.72;63.75;99540.73;1681228;85;21179;-69
2022/02/09 14:56:11;;;;;;;;;;;;;;;3.47;75.32;99577.53;1732310;82;20509;-67
2022/02/09 14:58:32;;;;;;;;;;;;;;;3.35;76.03;99585.95;1724279;82;21110;-67
2022/02/09 15:01:12;;;;;;;;;;;;;;;3.27;76.44;99584.56;1717069;83;20164;-66
2022/02/09 15:03:48;;;;;;;;;;;;;;;3.20;76.66;99582.64;1715323;83;20466;-67
2022/02/09 15:09:13;;;;;;;;;;;;;;;3.07;77.70;99591.28;1718118;82;20219;-69
2022/02/09 15:11:54;;;;;;;;;;;;;;;3.00;77.65;99598.84;1709293;83;20167;-66
2022/02/09 15:14:18;;;;;;;;;;;;;;;2.91;77.61;99595.81;1714155;82;20144;-65
2022/02/09 15:17:00;;;;;;;;;;;;;;;2.83;77.83;99599.06;1716270;83;20154;-66
2022/02/09 15:22:11;;;;;;;;;;;;;;;2.70;78.19;99609.55;1715679;82;20178;-66
2022/02/09 15:24:47;;;;;;;;;;;;;;;2.61;78.51;99618.18;1714654;82;21168;-68
2022/02/09 15:27:17;;;;;;;;;;;;;;;2.54;78.95;99616.77;1717705;83;20115;-66
2022/02/09 15:29:47;;;;;;;;;;;;;;;2.49;79.00;99617.56;1718681;83;20456;-68
2022/02/09 15:32:33;;;;;;;;;;;;;;;2.43;78.99;99625.91;1704861;82;20499;-66
2022/02/09 15:35:03;;;;;;;;;;;;;;;2.38;79.09;99632.11;1732220;81;20083;-65
2022/02/09 15:40:08;;;;;;;;;;;;;;;2.27;79.52;99639.91;1730658;81;20117;-66
2022/02/09 15:42:52;;;;;;;;;;;;;;;2.22;79.43;99641.22;1732291;81;20148;-64
2022/02/09 16:09:38;;;;;;;;;;;;;;;1.89;81.68;99681.53;1657193;85;20561;-69
2022/02/09 16:23:02;;;;;;;;;;;;;;;1.79;83.03;99682.78;1650022;85;20096;-65
2022/02/09 16:25:49;;;;;;;;;;;;;;;1.76;82.77;99685.46;1673915;85;20128;-65
2022/02/09 16:37:08;;;;;;;;;;;;;;;1.69;82.64;99702.47;1710018;84;20115;-65
2022/02/09 16:44:42;;;;;;;;;;;;;;;1.71;82.23;99707.09;1709920;84;21919;-65
2022/02/09 16:50:13;;;;;;;;;;;;;;;1.74;81.57;99695.73;1708519;83;20106;-69
2022/02/09 16:52:46;;;;;;;;;;;;;;;1.77;81.64;99700.63;1708373;83;20164;-66
2022/02/09 17:19:54;;;;;;;;;;;;;;;1.98;81.11;99730.09;1704735;84;20210;-65
2022/02/09 17:22:25;;;;;;;;;;;;;;;1.99;80.93;99723.07;1705352;84;20449;-65
2022/02/09 17:25:09;;;;;;;;;;;;;;;1.99;81.19;99724.42;1705309;84;21180;-65
2022/02/09 17:27:29;;;;;;;;;;;;;;;2.05;81.98;99724.48;1682669;84;20150;-65
2022/02/09 17:30:32;;;;;;;;;;;;;;;2.08;81.07;99733.45;1705229;84;20457;-65
2022/02/09 17:33:45;;;;;;;;;;;;;;;2.08;80.64;99733.45;1702953;83;20379;-65
2022/02/09 17:35:33;;;;;;;;;;;;;;;2.07;80.93;99733.16;1658794;85;20432;-65
2022/02/09 17:57:28;;;;;;;;;;;;;;;2.08;81.29;99728.84;1737725;82;20093;-65
2022/02/09 17:59:55;;;;;;;;;;;;;;;2.00;80.51;99722.53;1736753;82;20416;-65
2022/02/09 18:02:08;;;;;;;;;;;;;;;1.93;80.50;99725.44;1735847;82;20124;-66
2022/02/09 18:04:44;;;;;;;;;;;;;;;1.86;80.93;99722.12;1738705;82;21164;-65
2022/02/09 18:07:16;;;;;;;;;;;;;;;1.78;80.80;99712.27;1738191;82;20073;-66
2022/02/09 18:09:48;;;;;;;;;;;;;;;1.73;81.00;99713.60;1738695;82;20097;-65
2022/02/09 18:31:22;;;;;;;;;;;;;;;1.13;81.26;99722.61;1678967;84;21177;-65
2022/02/09 18:42:50;;;;;;;;;;;;;;;0.88;81.86;99732.53;1687278;84;20094;-66
2022/02/09 18:44:41;;;;;;;;;;;;;;;0.84;82.21;99730.85;1674298;84;21883;-65
2022/02/09 19:03:40;;;;;;;;;;;;;;;0.56;82.96;99726.39;1669957;85;20122;-68
2022/02/09 19:06:26;;;;;;;;;;;;;;;0.51;83.13;99727.66;1680746;85;20086;-69
2022/02/09 19:14:07;;;;;;;;;;;;;;;0.47;83.23;99727.05;1671867;84;20398;-69
2022/02/09 19:14:31;;;;;;;;;;;;;;;0.40;83.63;99731.78;1674484;84;20153;-69
2022/02/09 19:16:54;;;;;;;;;;;;;;;0.34;83.74;99737.63;1646107;85;20166;-69
2022/02/09 19:30:38;;;;;;;;;;;;;;;-0.13;84.79;99745.17;1646992;85;20174;-68
2022/02/09 19:49:13;;;;;;;;;;;;;;;-0.12;87.68;99753.03;1724050;82;20136;-70
2022/02/09 19:52:00;;;;;;;;;;;;;;;-0.04;88.43;99741.02;1719276;82;21152;-70
2022/02/09 19:57:02;;;;;;;;;;;;;;;0.17;89.01;99746.23;1721651;82;20084;-71
2022/02/09 19:59:21;;;;;;;;;;;;;;;0.28;89.10;99746.17;1719404;82;20699;-75
2022/02/09 20:01:48;;;;;;;;;;;;;;;0.39;89.12;99746.35;1721867;81;20213;-75
2022/02/09 20:04:15;;;;;;;;;;;;;;;0.46;89.07;99736.21;1723486;82;21200;-75
2022/02/09 20:06:43;;;;;;;;;;;;;;;0.53;89.17;99736.34;1731525;82;20153;-74
2022/02/09 20:09:09;;;;;;;;;;;;;;;0.59;89.27;99733.97;1736217;82;20185;-69
2022/02/09 20:11:38;;;;;;;;;;;;;;;0.65;89.17;99734.34;1736649;82;20138;-65
2022/02/09 20:14:04;;;;;;;;;;;;;;;0.69;89.08;99727.91;1736622;81;20409;-66
2022/02/09 20:16:30;;;;;;;;;;;;;;;0.75;89.57;99732.86;1715551;81;21113;-66
2022/02/09 20:18:58;;;;;;;;;;;;;;;0.82;89.55;99738.39;1707070;84;20139;-66
2022/02/09 20:21:26;;;;;;;;;;;;;;;0.85;89.49;99737.08;1707614;82;20724;-70
2022/02/09 20:23:53;;;;;;;;;;;;;;;0.89;89.45;99734.16;1707392;83;20132;-69
2022/02/09 20:26:21;;;;;;;;;;;;;;;0.93;89.44;99736.66;1697156;84;20132;-68
2022/02/09 20:28:57;;;;;;;;;;;;;;;0.96;89.29;99734.81;1707194;84;21117;-69
2022/02/09 20:31:30;;;;;;;;;;;;;;;0.99;89.20;99724.85;1707918;82;20112;-67
2022/02/09 20:36:39;;;;;;;;;;;;;;;1.06;89.24;99718.73;1751625;82;20145;-68
2022/02/09 20:44:20;;;;;;;;;;;;;;;1.12;89.06;99701.52;1731379;82;20144;-69
2022/02/09 20:46:36;;;;;;;;;;;;;;;1.10;88.93;99696.89;1752867;81;20421;-69
2022/02/09 20:49:03;;;;;;;;;;;;;;;1.06;88.86;99704.40;1754350;82;20945;-70
2022/02/09 20:51:30;;;;;;;;;;;;;;;1.00;88.92;99703.52;1754411;82;20170;-69
2022/02/09 20:53:57;;;;;;;;;;;;;;;0.93;89.03;99694.23;1754428;82;20995;-69
2022/02/09 20:56:24;;;;;;;;;;;;;;;0.87;89.21;99699.27;1741854;82;20155;-68
2022/02/09 20:58:57;;;;;;;;;;;;;;;0.83;89.39;99708.12;1739813;82;20141;-69
2022/02/09 21:01:27;;;;;;;;;;;;;;;0.76;89.80;99711.00;1758168;81;20450;-68
2022/02/09 21:03:55;;;;;;;;;;;;;;;0.72;90.17;99715.27;1768428;80;20412;-68
2022/02/09 21:06:37;;;;;;;;;;;;;;;0.66;90.60;99704.91;1769628;81;21834;-70
2022/02/09 21:16:40;;;;;;;;;;;;;;;0.64;92.13;99703.52;1739008;81;20148;-68
2022/02/09 21:27:43;;;;;;;;;;;;;;;0.56;93.11;99702.08;1734049;82;20838;-68
2022/02/09 21:54:11;;;;;;;;;;;;;;;0.46;95.91;99705.15;1764485;81;20150;-67
2022/02/09 22:01:51;;;;;;;;;;;;;;;0.46;96.34;99697.05;1749129;81;20081;-66
2022/02/09 22:23:25;;;;;;;;;;;;;;;0.50;97.82;99687.39;1751311;81;20416;-67
2022/02/09 22:28:00;;;;;;;;;;;;;;;0.57;98.37;99687.50;1765137;80;20082;-68
2022/02/09 22:31:05;;;;;;;;;;;;;;;0.61;98.32;99692.67;1763237;81;20090;-68
2022/02/09 22:49:21;;;;;;;;;;;;;;;0.85;98.69;99671.67;1765201;80;20125;-68
2022/02/09 22:54:38;;;;;;;;;;;;;;;0.88;99.01;99664.95;1765057;80;20097;-68
2022/02/09 22:56:58;;;;;;;;;;;;;;;0.90;99.15;99659.59;1763221;81;20093;-68
2022/02/09 23:02:04;;;;;;;;;;;;;;;0.95;99.46;99652.08;1765290;80;20081;-68
2022/02/09 23:04:43;;;;;;;;;;;;;;;0.99;99.65;99657.27;1764497;81;21171;-68
2022/02/09 23:07:20;;;;;;;;;;;;;;;1.02;99.81;99652.71;1764309;81;20413;-67
2022/02/09 23:12:23;;;;;;;;;;;;;;;1.09;100.00;99660.11;1764348;81;20097;-67
2022/02/09 23:29:02;;;;;;;;;;;;;;;1.17;100.00;99628.55;1765244;81;20146;-69
